Ajax — WDC2573 — position and weather

sailwx.info

Track history (hours):
 
Tides and Currents Weather Stations Pressure Air Temp Water Temp Dewpoint Dewpoint Depression Visibility Wind Speed Wind Dir Waves Ship Positions

Ajax

Owner: Kirby Inland Marine LP, Houston, TX. More information available from US FCC via Universal Licensing System and Coast Guard Vessel Documentation Center.

Last reported at 2017-Nov-17 23:55 UTC. Time now 2017-Nov-18 17:54 UTC.
Position N 29°32' W 090°53'.

Length 206 m; draft 3 m.

Type: . MMSI: 366995150.

Date/timePositionNaut miles runAvg speedWind from/ knotsBaromVisibWave heightAir tempDewpointWater temp
2017-Nov-17 23:55N 29°32' W 090°53'2 4.6
2017-Nov-17 23:30N 29°32' W 090°51'2 4.8
2017-Nov-17 23:00N 29°32' W 090°48'2 4.2
2017-Nov-17 22:30N 29°32' W 090°46'2 4.1
2017-Nov-17 22:00N 29°34' W 090°44'2 3.3
2017-Nov-17 21:30N 29°35' W 090°43'2 3.6
2017-Nov-17 21:00N 29°37' W 090°42'1 1.2
2017-Nov-17 20:30N 29°37' W 090°41'0 0.0
2017-Nov-17 20:00N 29°37' W 090°41'0 0.3
2017-Nov-17 19:30N 29°36' W 090°41'0 0.0
2017-Nov-17 19:00N 29°36' W 090°41'0 0.0
2017-Nov-17 18:30N 29°36' W 090°41'1 1.3
2017-Nov-17 18:00N 29°36' W 090°41'2 4.2
2017-Nov-17 17:30N 29°35' W 090°38'2 4.3
2017-Nov-17 17:00N 29°35' W 090°36'1 2.3
2017-Nov-17 16:30N 29°34' W 090°35'2 4.5
2017-Nov-17 15:59N 29°34' W 090°32'  
2017-Nov-12 17:44N 29°33' W 090°28'1 4.6
2017-Nov-12 17:30N 29°34' W 090°29'2 4.6
2017-Nov-12 17:00N 29°34' W 090°32'2 4.4
2017-Nov-12 16:30N 29°34' W 090°34'2 4.3
2017-Nov-12 16:00N 29°35' W 090°37'2 4.5
2017-Nov-12 15:30N 29°36' W 090°39'2 4.5
2017-Nov-12 15:00N 29°37' W 090°41'2 3.0
2017-Nov-12 14:30N 29°36' W 090°43'1 2.8
2017-Nov-12 14:00N 29°34' W 090°43'2 4.1
2017-Nov-12 13:30N 29°33' W 090°45'2 3.5
2017-Nov-12 13:00N 29°32' W 090°47'3 5.1
2017-Nov-12 12:30N 29°32' W 090°50'2 4.9
2017-Nov-12 12:00N 29°32' W 090°53'3 5.3
2017-Nov-12 11:30N 29°34' W 090°55'3 5.2
2017-Nov-12 10:56N 29°35' W 090°58'52 3.9
2017-Nov-11 21:39N 29°51' W 091°55'1 5.0
2017-Nov-11 21:29N 29°51' W 091°56'2 4.8
2017-Nov-11 20:59N 29°50' W 091°59'3 5.0
2017-Nov-11 20:29N 29°49' W 092°01'2 4.9
2017-Nov-11 19:59N 29°48' W 092°04'2 4.2
2017-Nov-11 19:29N 29°48' W 092°06'2 4.4
2017-Nov-11 18:59N 29°47' W 092°09'2 4.1
2017-Nov-11 18:29N 29°47' W 092°11'1 2.8
2017-Nov-11 17:59N 29°47' W 092°12'1 1.6
2017-Nov-11 17:29N 29°48' W 092°13'1 1.8
2017-Nov-11 16:59N 29°48' W 092°14'0 0.6
2017-Nov-11 16:29N 29°48' W 092°15'58 2.4
2017-Nov-10 16:30N 30°06' W 093°18'0 0.0
2017-Nov-10 16:00N 30°06' W 093°18'0 0.1
2017-Nov-10 15:30N 30°06' W 093°18'1 1.7
2017-Nov-10 15:00N 30°06' W 093°19'2 3.0
2017-Nov-10 14:30N 30°05' W 093°20'2 3.2
2017-Nov-10 14:00N 30°04' W 093°22'2 3.9
2017-Nov-10 13:30N 30°04' W 093°24'2 4.5
2017-Nov-10 13:00N 30°04' W 093°27'2 4.5
2017-Nov-10 12:30N 30°04' W 093°29'2 4.5
2017-Nov-10 12:00N 30°04' W 093°32'2 4.4
2017-Nov-10 11:30N 30°04' W 093°34'2 4.6
2017-Nov-10 11:00N 30°04' W 093°37'14 4.6
2017-Nov-10 08:03N 29°58' W 093°52'12 0.4
2017-Nov-09 02:30N 30°07' W 093°42'1 0.1
2017-Nov-08 01:34N 30°08' W 093°41'1 0.9
2017-Nov-08 00:12N 30°07' W 093°42'  
Track history (hours):
 
Tides and Currents Weather Stations Pressure Air Temp Water Temp Dewpoint Dewpoint Depression Visibility Wind Speed Wind Dir Waves Ship Positions

Ajax

Owner: Kirby Inland Marine LP, Houston, TX. More information available from US FCC via Universal Licensing System and Coast Guard Vessel Documentation Center.

Last reported at 2017-Nov-17 23:55 UTC. Time now 2017-Nov-18 17:54 UTC.
Position N 29°32' W 090°53'.

Length 206 m; draft 3 m.

Type: . MMSI: 366995150.

Date/timePositionNaut miles runAvg speedWind from/ knotsBaromVisibWave heightAir tempDewpointWater temp
2017-Nov-17 23:55N 29°32' W 090°53'2 4.6
2017-Nov-17 23:30N 29°32' W 090°51'2 4.8
2017-Nov-17 23:00N 29°32' W 090°48'2 4.2
2017-Nov-17 22:30N 29°32' W 090°46'2 4.1
2017-Nov-17 22:00N 29°34' W 090°44'2 3.3
2017-Nov-17 21:30N 29°35' W 090°43'2 3.6
2017-Nov-17 21:00N 29°37' W 090°42'1 1.2
2017-Nov-17 20:30N 29°37' W 090°41'0 0.0
2017-Nov-17 20:00N 29°37' W 090°41'0 0.3
2017-Nov-17 19:30N 29°36' W 090°41'0 0.0
2017-Nov-17 19:00N 29°36' W 090°41'0 0.0
2017-Nov-17 18:30N 29°36' W 090°41'1 1.3
2017-Nov-17 18:00N 29°36' W 090°41'2 4.2
2017-Nov-17 17:30N 29°35' W 090°38'2 4.3
2017-Nov-17 17:00N 29°35' W 090°36'1 2.3
2017-Nov-17 16:30N 29°34' W 090°35'2 4.5
2017-Nov-17 15:59N 29°34' W 090°32'  
2017-Nov-12 17:44N 29°33' W 090°28'1 4.6
2017-Nov-12 17:30N 29°34' W 090°29'2 4.6
2017-Nov-12 17:00N 29°34' W 090°32'2 4.4
2017-Nov-12 16:30N 29°34' W 090°34'2 4.3
2017-Nov-12 16:00N 29°35' W 090°37'2 4.5
2017-Nov-12 15:30N 29°36' W 090°39'2 4.5
2017-Nov-12 15:00N 29°37' W 090°41'2 3.0
2017-Nov-12 14:30N 29°36' W 090°43'1 2.8
2017-Nov-12 14:00N 29°34' W 090°43'2 4.1
2017-Nov-12 13:30N 29°33' W 090°45'2 3.5
2017-Nov-12 13:00N 29°32' W 090°47'3 5.1
2017-Nov-12 12:30N 29°32' W 090°50'2 4.9
2017-Nov-12 12:00N 29°32' W 090°53'3 5.3
2017-Nov-12 11:30N 29°34' W 090°55'3 5.2
2017-Nov-12 10:56N 29°35' W 090°58'52 3.9
2017-Nov-11 21:39N 29°51' W 091°55'1 5.0
2017-Nov-11 21:29N 29°51' W 091°56'2 4.8
2017-Nov-11 20:59N 29°50' W 091°59'3 5.0
2017-Nov-11 20:29N 29°49' W 092°01'2 4.9
2017-Nov-11 19:59N 29°48' W 092°04'2 4.2
2017-Nov-11 19:29N 29°48' W 092°06'2 4.4
2017-Nov-11 18:59N 29°47' W 092°09'2 4.1
2017-Nov-11 18:29N 29°47' W 092°11'1 2.8
2017-Nov-11 17:59N 29°47' W 092°12'1 1.6
2017-Nov-11 17:29N 29°48' W 092°13'1 1.8
2017-Nov-11 16:59N 29°48' W 092°14'0 0.6
2017-Nov-11 16:29N 29°48' W 092°15'58 2.4
2017-Nov-10 16:30N 30°06' W 093°18'0 0.0
2017-Nov-10 16:00N 30°06' W 093°18'0 0.1
2017-Nov-10 15:30N 30°06' W 093°18'1 1.7
2017-Nov-10 15:00N 30°06' W 093°19'2 3.0
2017-Nov-10 14:30N 30°05' W 093°20'2 3.2
2017-Nov-10 14:00N 30°04' W 093°22'2 3.9
2017-Nov-10 13:30N 30°04' W 093°24'2 4.5
2017-Nov-10 13:00N 30°04' W 093°27'2 4.5
2017-Nov-10 12:30N 30°04' W 093°29'2 4.5
2017-Nov-10 12:00N 30°04' W 093°32'2 4.4
2017-Nov-10 11:30N 30°04' W 093°34'2 4.6
2017-Nov-10 11:00N 30°04' W 093°37'14 4.6
2017-Nov-10 08:03N 29°58' W 093°52'12 0.4
2017-Nov-09 02:30N 30°07' W 093°42'1 0.1
2017-Nov-08 01:34N 30°08' W 093°41'1 0.9
2017-Nov-08 00:12N 30°07' W 093°42'  

Dump ship's entire track history